Time;durP1;ratioP1;P1;durP2;ratioP2;P2;SDS_P1;SDS_P2;PMS_P1;PMS_P2;Temp;Humidity;BMP_temperature;BMP_pressure;BME280_temperature;BME280_humidity;BME280_pressure;Samples;Min_cycle;Max_cycle;Signal;HPM_P1;HPM_P2
2022/05/21 00:00:34;;;;;;;9.27;2.90;;;;;;;11.80;61.04;100404.19;4982776;28;20446;-43
2022/05/21 00:03:00;;;;;;;5.93;1.30;;;;;;;11.79;61.19;100413.69;4986593;28;20116;-42
2022/05/21 00:05:29;;;;;;;3.42;0.88;;;;;;;11.79;61.61;100413.69;4988068;28;20047;-43
2022/05/21 00:08:03;;;;;;;9.80;2.58;;;;;;;11.78;60.89;100417.16;4987240;28;20065;-43
2022/05/21 00:10:31;;;;;;;6.68;1.10;;;;;;;11.76;60.95;100418.88;4986240;28;20050;-44
2022/05/21 00:13:00;;;;;;;6.45;1.20;;;;;;;11.74;60.96;100418.03;4985610;28;20101;-43
2022/05/21 00:15:30;;;;;;;12.68;1.02;;;;;;;11.72;60.63;100421.50;4988579;28;20564;-43
2022/05/21 00:17:57;;;;;;;3.92;1.35;;;;;;;11.69;62.03;100417.19;4987059;28;20042;-47
2022/05/21 00:23:14;;;;;;;5.85;1.15;;;;;;;11.61;61.57;100422.38;4982586;28;20057;-46
2022/05/21 00:26:03;;;;;;;8.55;1.20;;;;;;;11.59;61.02;100425.84;4981062;28;20149;-43
2022/05/21 00:28:30;;;;;;;7.75;1.10;;;;;;;11.53;60.93;100422.41;4982327;28;20047;-43
2022/05/21 00:30:58;;;;;;;5.22;0.80;;;;;;;11.50;61.06;100421.53;4982939;28;20101;-44
2022/05/21 00:33:26;;;;;;;10.23;1.20;;;;;;;11.49;61.31;100433.66;4984990;28;20105;-48
2022/05/21 00:35:54;;;;;;;7.70;1.27;;;;;;;11.44;61.65;100427.56;4986163;28;20049;-51
2022/05/21 00:38:21;;;;;;;8.25;1.70;;;;;;;11.41;62.14;100433.63;4995035;28;20061;-50
2022/05/21 00:40:49;;;;;;;5.78;1.38;;;;;;;11.40;62.48;100428.44;5004592;28;20042;-43
2022/05/21 01:00:04;;;;;;;8.35;1.27;;;;;;;11.43;62.85;100441.41;5067270;28;20399;-45
2022/05/21 01:02:35;;;;;;;9.75;1.23;;;;;;;11.43;62.45;100431.03;4978608;28;20102;-49
2022/05/21 01:05:07;;;;;;;5.63;1.15;;;;;;;11.40;63.00;100434.50;4976079;28;20093;-44
2022/05/21 01:07:36;;;;;;;6.55;1.10;;;;;;;11.39;63.08;100434.50;4975724;28;20058;-45
2022/05/21 01:10:04;;;;;;;7.15;1.05;;;;;;;11.35;62.89;100432.78;4988849;28;20050;-42
2022/05/21 01:12:36;;;;;;;8.32;0.98;;;;;;;11.32;62.89;100434.50;4998648;28;20042;-45
2022/05/21 01:15:09;;;;;;;7.85;1.27;;;;;;;11.28;63.21;100429.31;4987178;28;20050;-43
2022/05/21 01:17:35;;;;;;;3.47;1.25;;;;;;;11.24;62.48;100437.94;5001193;28;20185;-44
2022/05/21 01:20:13;;;;;;;4.70;0.80;;;;;;;11.14;63.20;100440.53;5007733;28;20101;-44
2022/05/21 01:25:20;;;;;;;10.20;1.83;;;;;;;11.12;62.87;100428.44;5043073;27;20898;-44
2022/05/21 01:27:50;;;;;;;9.27;1.17;;;;;;;11.11;62.77;100434.50;5023971;28;20523;-46
2022/05/21 01:30:20;;;;;;;7.35;1.15;;;;;;;11.07;62.92;100437.94;5020377;28;20046;-46
2022/05/21 01:32:48;;;;;;;6.68;1.00;;;;;;;11.04;63.12;100444.84;5029692;28;20096;-45
2022/05/21 01:35:18;;;;;;;9.05;1.42;;;;;;;11.03;62.88;100435.34;5019226;28;20041;-43
2022/05/21 01:37:46;;;;;;;6.38;1.20;;;;;;;11.00;63.72;100435.31;5022065;28;20072;-43
2022/05/21 01:40:17;;;;;;;9.20;1.30;;;;;;;10.98;63.19;100437.03;5021907;28;20046;-46
2022/05/21 01:44:37;;;;;;;7.95;0.80;;;;;;;10.95;63.72;100438.78;5022907;28;20068;-43
2022/05/21 01:45:30;;;;;;;8.80;1.40;;;;;;;10.91;64.17;100430.97;5023418;28;20409;-47
2022/05/21 01:47:57;;;;;;;10.52;1.88;;;;;;;10.89;64.02;100429.25;5024364;28;20050;-44
2022/05/21 01:50:24;;;;;;;6.82;1.58;;;;;;;10.88;63.87;100432.72;5025598;28;20048;-42
2022/05/21 01:52:50;;;;;;;4.28;0.93;;;;;;;10.85;64.09;100433.59;5017850;28;20057;-43
2022/05/21 01:55:17;;;;;;;5.82;2.45;;;;;;;10.82;64.17;100437.88;5022102;28;20046;-49
2022/05/21 01:57:44;;;;;;;8.35;1.25;;;;;;;10.80;63.94;100430.97;5021873;28;20046;-45
2022/05/21 02:00:11;;;;;;;6.88;1.40;;;;;;;10.78;64.32;100431.84;5021976;28;20053;-43
2022/05/21 02:02:38;;;;;;;6.07;1.33;;;;;;;10.74;64.15;100425.75;5025359;28;20052;-42
2022/05/21 02:05:05;;;;;;;10.43;1.48;;;;;;;10.74;63.86;100427.50;5029635;28;20068;-46
2022/05/21 02:07:32;;;;;;;5.75;0.80;;;;;;;10.70;64.58;100431.78;5027059;28;20042;-47
2022/05/21 02:09:59;;;;;;;7.97;1.77;;;;;;;10.66;64.54;100436.13;5021779;28;20045;-45
2022/05/21 02:12:27;;;;;;;8.95;1.15;;;;;;;10.64;64.35;100435.22;5015465;28;20880;-44
2022/05/21 02:14:55;;;;;;;5.82;1.50;;;;;;;10.63;64.47;100443.88;5017131;28;20053;-45
2022/05/21 02:17:23;;;;;;;8.15;1.48;;;;;;;10.60;64.25;100433.50;5023306;28;20591;-46
2022/05/21 02:19:49;;;;;;;8.50;2.28;;;;;;;10.59;64.48;100442.13;5024703;28;20049;-44
2022/05/21 02:22:17;;;;;;;8.02;1.33;;;;;;;10.58;64.54;100439.53;5023878;28;20077;-48
2022/05/21 02:24:43;;;;;;;7.65;1.75;;;;;;;10.56;65.05;100446.41;5011348;28;20104;-46
2022/05/21 02:27:12;;;;;;;6.90;0.90;;;;;;;10.51;65.23;100444.69;5017165;28;20207;-43
2022/05/21 02:29:39;;;;;;;6.35;1.52;;;;;;;10.50;64.80;100442.97;5016731;28;20095;-44
2022/05/21 02:32:07;;;;;;;9.60;1.30;;;;;;;10.49;65.32;100441.22;5016427;28;20212;-43
2022/05/21 02:34:34;;;;;;;6.95;1.58;;;;;;;10.47;64.55;100437.75;5016695;28;20092;-42
2022/05/21 02:39:47;;;;;;;5.93;1.67;;;;;;;10.44;65.70;100442.03;4995822;28;20050;-46
2022/05/21 02:45:03;;;;;;;7.50;1.50;;;;;;;10.40;65.45;100452.38;4998690;28;20386;-45
2022/05/21 02:47:31;;;;;;;5.13;1.10;;;;;;;10.40;65.03;100448.91;5004703;28;20042;-46
2022/05/21 02:49:57;;;;;;;10.35;1.30;;;;;;;10.38;65.47;100450.66;4999314;28;20054;-45
2022/05/21 02:52:24;;;;;;;12.00;1.65;;;;;;;10.37;65.87;100456.69;5004408;28;20633;-42
2022/05/21 02:54:51;;;;;;;5.90;1.67;;;;;;;10.36;65.44;100460.13;4995026;28;20046;-44
2022/05/21 02:57:17;;;;;;;8.52;1.80;;;;;;;10.35;65.44;100463.56;4996047;28;20058;-45
2022/05/21 02:59:44;;;;;;;7.50;2.17;;;;;;;10.31;65.73;100472.19;5000894;28;20050;-43
2022/05/21 03:02:10;;;;;;;8.07;1.33;;;;;;;10.29;65.76;100475.63;4997727;28;20058;-46
2022/05/21 03:04:37;;;;;;;9.63;1.38;;;;;;;10.25;66.25;100473.91;5000232;28;20074;-46
2022/05/21 03:07:04;;;;;;;6.72;1.10;;;;;;;10.25;65.70;100489.44;4987945;28;20545;-45
2022/05/21 03:12:17;;;;;;;6.45;1.77;;;;;;;10.19;66.46;100484.19;4993810;28;20567;-44
2022/05/21 03:14:43;;;;;;;11.02;2.10;;;;;;;10.19;66.01;100485.91;5003374;28;20034;-43
2022/05/21 03:17:11;;;;;;;7.15;1.75;;;;;;;10.18;66.22;100487.66;4993360;28;20045;-40
2022/05/21 03:19:39;;;;;;;11.15;1.75;;;;;;;10.15;66.34;100483.34;4998437;28;20057;-44
2022/05/21 03:22:05;;;;;;;8.80;1.25;;;;;;;10.15;66.40;100483.34;4998089;28;20042;-44
2022/05/21 03:24:32;;;;;;;6.88;1.63;;;;;;;10.15;66.49;100492.81;5001828;28;20046;-43
2022/05/21 03:26:58;;;;;;;5.50;1.75;;;;;;;10.14;65.85;100501.44;4993349;28;20108;-47
2022/05/21 03:29:25;;;;;;;12.23;1.52;;;;;;;10.13;66.11;100502.28;4993255;28;21797;-45
2022/05/21 03:31:52;;;;;;;9.27;1.77;;;;;;;10.10;66.59;100499.69;5001462;28;20111;-45
2022/05/21 03:34:19;;;;;;;8.73;1.25;;;;;;;10.08;66.61;100497.09;4999703;28;21001;-47
2022/05/21 03:36:46;;;;;;;7.40;1.48;;;;;;;10.09;66.33;100497.94;5007350;28;20065;-45
2022/05/21 03:39:12;;;;;;;10.13;1.38;;;;;;;10.07;66.31;100504.84;4999297;28;20050;-43
2022/05/21 03:41:39;;;;;;;11.20;1.45;;;;;;;10.06;66.53;100500.53;5001337;28;20046;-46
2022/05/21 03:44:25;;;;;;;7.85;1.80;;;;;;;10.04;66.55;100497.94;4995717;28;20045;-42
2022/05/21 03:46:52;;;;;;;12.25;2.22;;;;;;;10.03;66.94;100509.09;4989498;28;20100;-46
2022/05/21 03:49:19;;;;;;;8.82;1.30;;;;;;;10.02;66.67;100508.25;4996101;28;20049;-49
2022/05/21 03:51:45;;;;;;;5.07;1.23;;;;;;;9.98;66.38;100514.28;4996025;28;20116;-46
2022/05/21 03:54:12;;;;;;;5.60;1.30;;;;;;;9.99;66.60;100508.22;4998130;28;20050;-48
2022/05/21 03:56:38;;;;;;;5.18;1.50;;;;;;;9.96;66.88;100508.22;4990768;28;20530;-47
2022/05/21 03:59:05;;;;;;;6.63;1.45;;;;;;;9.92;67.44;100514.22;5000224;28;20046;-47
2022/05/21 04:01:32;;;;;;;6.72;1.85;;;;;;;9.92;67.21;100511.63;4996621;28;20054;-46
2022/05/21 04:03:58;;;;;;;6.10;1.48;;;;;;;9.93;67.20;100518.53;5003793;28;20038;-46
2022/05/21 04:06:25;;;;;;;5.05;1.55;;;;;;;9.92;67.64;100511.63;5004890;28;20053;-48
2022/05/21 04:08:52;;;;;;;6.97;2.28;;;;;;;9.91;67.72;100517.66;4993494;28;20110;-46
2022/05/21 04:11:19;;;;;;;9.98;1.70;;;;;;;9.89;67.53;100516.78;4997506;28;20482;-42
2022/05/21 04:13:45;;;;;;;12.90;1.70;;;;;;;9.89;67.30;100506.44;4996792;28;20049;-43
2022/05/21 04:16:12;;;;;;;10.57;1.75;;;;;;;9.87;67.64;100502.97;4995264;28;20046;-44
2022/05/21 04:18:38;;;;;;;5.90;1.42;;;;;;;9.87;67.49;100508.16;4995227;28;20107;-44
2022/05/21 04:21:05;;;;;;;9.45;1.70;;;;;;;9.87;67.24;100503.81;4996574;28;20145;-43
2022/05/21 04:23:31;;;;;;;7.88;1.30;;;;;;;9.85;67.56;100509.84;4998021;28;20456;-42
2022/05/21 04:25:58;;;;;;;10.48;1.83;;;;;;;9.87;67.67;100510.75;4995271;28;20051;-43
2022/05/21 04:28:25;;;;;;;1.95;0.80;;;;;;;9.87;67.55;100513.31;4981134;28;20106;-43
2022/05/21 04:30:51;;;;;;;10.05;1.35;;;;;;;9.88;67.75;100525.41;4984749;28;20491;-45
2022/05/21 04:33:18;;;;;;;7.28;1.27;;;;;;;9.90;67.51;100526.28;4995549;28;20078;-44
2022/05/21 04:38:34;;;;;;;7.28;1.20;;;;;;;9.94;68.00;100515.13;4993685;28;20116;-44
2022/05/21 04:41:01;;;;;;;10.63;1.23;;;;;;;9.96;67.76;100515.97;4999668;28;20057;-45
2022/05/21 04:43:28;;;;;;;8.10;1.40;;;;;;;10.00;67.50;100509.97;4993522;28;20046;-43
2022/05/21 04:45:59;;;;;;;10.18;1.60;;;;;;;10.05;67.39;100517.75;5024551;28;20108;-43
2022/05/21 04:48:26;;;;;;;7.50;1.30;;;;;;;10.08;67.87;100516.91;5000019;28;20390;-45
2022/05/21 04:50:59;;;;;;;11.77;1.90;;;;;;;10.13;67.66;100510.03;4999524;28;20046;-51
2022/05/21 04:53:25;;;;;;;7.50;0.95;;;;;;;10.16;67.45;100508.34;4985674;28;20612;-43
2022/05/21 04:55:52;;;;;;;7.15;1.65;;;;;;;10.18;67.90;100513.53;4994445;28;20054;-42
2022/05/21 04:58:19;;;;;;;10.13;1.60;;;;;;;10.19;67.71;100523.03;4994522;28;20437;-45
2022/05/21 05:00:46;;;;;;;7.05;1.55;;;;;;;10.21;67.25;100523.91;4994794;28;20072;-44
2022/05/21 05:03:15;;;;;;;10.75;1.33;;;;;;;10.25;67.85;100529.97;4998523;28;20049;-48
2022/05/21 05:05:43;;;;;;;8.07;1.75;;;;;;;10.27;67.59;100539.47;4993880;28;20089;-44
2022/05/21 05:08:11;;;;;;;8.52;1.58;;;;;;;10.33;67.74;100542.97;4997037;28;20049;-44
2022/05/21 05:10:38;;;;;;;5.85;1.27;;;;;;;10.37;68.11;100550.75;4992756;28;20046;-47
2022/05/21 05:13:06;;;;;;;8.52;1.38;;;;;;;10.41;67.69;100546.47;4998587;28;20663;-43
2022/05/21 05:15:33;;;;;;;20.85;8.30;;;;;;;10.47;67.24;100551.72;4988461;28;20097;-43
2022/05/21 05:18:03;;;;;;;8.77;3.72;;;;;;;10.50;67.96;100538.78;4995109;28;20092;-47
2022/05/21 05:20:29;;;;;;;12.60;5.80;;;;;;;10.56;67.76;100535.34;5005153;28;20049;-47
2022/05/21 05:22:56;;;;;;;10.10;4.95;;;;;;;10.62;67.49;100534.53;4997300;28;20058;-46
2022/05/21 05:25:23;;;;;;;10.52;4.18;;;;;;;10.66;67.64;100536.28;4991302;28;20046;-47
2022/05/21 05:27:50;;;;;;;15.23;3.67;;;;;;;10.71;67.88;100539.75;4992460;28;20061;-47
2022/05/21 05:30:19;;;;;;;10.40;2.22;;;;;;;10.77;67.42;100533.72;4989833;28;20101;-46
2022/05/21 05:32:46;;;;;;;11.43;2.17;;;;;;;10.79;67.69;100530.31;4994629;28;20054;-44
2022/05/21 05:35:13;;;;;;;9.38;3.78;;;;;;;10.86;67.18;100544.13;4999094;28;20046;-45
2022/05/21 05:37:45;;;;;;;9.98;3.60;;;;;;;10.92;67.34;100540.72;5000567;28;20083;-44
2022/05/21 05:40:17;;;;;;;11.30;2.83;;;;;;;10.97;67.14;100551.94;4996550;28;20054;-46
2022/05/21 05:42:44;;;;;;;10.07;3.88;;;;;;;11.02;67.69;100550.22;5025411;28;20054;-46
2022/05/21 05:45:12;;;;;;;14.75;2.70;;;;;;;11.05;67.35;100559.75;4999391;28;20062;-44
2022/05/21 05:47:39;;;;;;;9.88;1.60;;;;;;;11.08;67.76;100551.13;4987979;28;20093;-51
2022/05/21 05:50:07;;;;;;;10.27;1.65;;;;;;;11.12;67.83;100555.47;4986428;28;20104;-48
2022/05/21 05:52:33;;;;;;;9.35;2.65;;;;;;;11.15;67.87;100552.88;4991734;28;20119;-44
2022/05/21 05:55:01;;;;;;;7.78;2.22;;;;;;;11.17;67.62;100558.94;4997650;28;20204;-48
2022/05/21 05:57:27;;;;;;;11.23;3.97;;;;;;;11.20;67.61;100564.13;4992208;28;20050;-44
2022/05/21 05:59:55;;;;;;;12.60;3.05;;;;;;;11.21;67.25;100565.00;4991910;28;20050;-45
2022/05/21 06:05:16;;;;;;;21.45;6.57;;;;;;;11.27;67.50;100565.88;4984005;28;20457;-45
2022/05/21 06:10:39;;;;;;;10.93;2.47;;;;;;;11.43;67.25;100573.69;5038195;27;20398;-44
2022/05/21 06:13:06;;;;;;;9.50;2.08;;;;;;;11.52;66.92;100565.06;5000206;28;20073;-46
2022/05/21 06:15:34;;;;;;;8.00;2.35;;;;;;;11.59;67.57;100572.00;5016880;28;20096;-46
2022/05/21 06:18:19;;;;;;;7.55;1.95;;;;;;;11.63;67.11;100562.47;5016250;28;20049;-46
2022/05/21 06:20:48;;;;;;;11.68;1.73;;;;;;;11.70;66.55;100559.91;5011445;28;20074;-46
2022/05/21 06:23:16;;;;;;;10.85;2.13;;;;;;;11.73;67.28;100564.22;5008877;28;20053;-45
2022/05/21 06:25:42;;;;;;;13.40;2.00;;;;;;;11.78;66.82;100562.50;5003039;28;20050;-45
2022/05/21 06:28:09;;;;;;;11.55;3.03;;;;;;;11.88;67.06;100558.16;5004238;28;20061;-44
2022/05/21 06:30:38;;;;;;;10.13;2.30;;;;;;;11.98;67.56;100559.03;4999164;28;20120;-44
2022/05/21 06:33:25;;;;;;;11.73;2.00;;;;;;;12.07;66.53;100572.06;5000019;28;20077;-47
2022/05/21 06:36:14;;;;;;;13.85;2.47;;;;;;;12.17;66.63;100580.72;5004065;28;20115;-46
2022/05/21 06:38:42;;;;;;;9.10;1.40;;;;;;;12.31;66.60;100593.69;5005320;28;20042;-46
2022/05/21 06:41:09;;;;;;;11.68;1.60;;;;;;;12.40;65.91;100587.59;5000862;28;20498;-42
2022/05/21 06:43:36;;;;;;;9.07;2.10;;;;;;;12.54;66.61;100584.97;5004235;28;20754;-45
2022/05/21 06:46:03;;;;;;;11.05;2.65;;;;;;;12.73;65.53;100590.09;5006458;28;20055;-49
2022/05/21 06:48:30;;;;;;;10.93;2.38;;;;;;;12.91;65.46;100585.72;5004173;28;20498;-45
2022/05/21 06:50:57;;;;;;;11.15;1.77;;;;;;;13.07;65.13;100600.38;5005342;28;20058;-44
2022/05/21 06:53:23;;;;;;;12.82;1.80;;;;;;;13.17;65.67;100596.00;5006863;28;20177;-47
2022/05/21 06:55:50;;;;;;;24.50;4.22;;;;;;;13.23;64.80;100600.31;5006350;28;20058;-45
2022/05/21 06:58:16;;;;;;;21.52;5.10;;;;;;;13.28;65.24;100598.56;5000724;28;20053;-44
2022/05/21 07:00:43;;;;;;;10.10;3.20;;;;;;;13.31;64.26;100598.53;5004597;28;20046;-47
2022/05/21 07:03:10;;;;;;;11.98;4.28;;;;;;;13.35;64.34;100597.66;5001135;28;20057;-43
2022/05/21 07:08:25;;;;;;;18.63;4.45;;;;;;;13.47;64.71;100603.66;4994538;28;20050;-42
2022/05/21 07:10:52;;;;;;;18.23;3.30;;;;;;;13.53;64.22;100611.47;4977483;28;20093;-43
2022/05/21 07:13:22;;;;;;;16.95;3.42;;;;;;;13.57;65.37;100615.78;4981677;28;20067;-43
2022/05/21 07:15:49;;;;;;;13.98;3.05;;;;;;;13.58;65.06;100612.28;4993591;28;20414;-43
2022/05/21 07:18:18;;;;;;;12.55;2.50;;;;;;;13.57;63.98;100620.97;4993414;28;20063;-42
2022/05/21 07:20:45;;;;;;;12.82;3.45;;;;;;;13.56;63.92;100619.28;4991997;28;20046;-44
2022/05/21 07:23:13;;;;;;;10.63;3.60;;;;;;;13.61;64.81;100617.50;4993728;28;20058;-45
2022/05/21 07:25:40;;;;;;;11.52;2.88;;;;;;;13.70;64.24;100619.19;4989922;28;20494;-46
2022/05/21 07:28:08;;;;;;;10.15;2.33;;;;;;;13.77;64.11;100625.19;4989142;28;20060;-44
2022/05/21 07:30:36;;;;;;;9.90;2.58;;;;;;;13.84;64.44;100624.28;4979879;28;20057;-45
2022/05/21 07:33:04;;;;;;;6.20;1.38;;;;;;;13.92;63.83;100621.66;4978774;28;20074;-42
2022/05/21 07:35:31;;;;;;;10.80;2.95;;;;;;;13.99;63.62;100620.69;4979938;28;20112;-44
2022/05/21 07:37:58;;;;;;;8.15;2.22;;;;;;;14.06;63.87;100618.94;4979238;28;20050;-42
2022/05/21 07:40:25;;;;;;;6.00;1.80;;;;;;;14.18;63.45;100627.53;4980220;28;20380;-43
2022/05/21 07:42:52;;;;;;;11.07;2.00;;;;;;;14.30;63.94;100627.41;4978634;28;20054;-44
2022/05/21 07:45:21;;;;;;;9.32;1.95;;;;;;;14.44;63.06;100624.66;4982999;28;20061;-50
2022/05/21 07:47:49;;;;;;;12.13;2.53;;;;;;;14.57;63.53;100630.63;4980693;28;20122;-46
2022/05/21 07:50:17;;;;;;;12.40;1.85;;;;;;;14.73;63.03;100631.31;4984756;28;20054;-43
2022/05/21 07:52:45;;;;;;;10.27;2.05;;;;;;;14.90;62.53;100641.59;4981406;28;20458;-49
2022/05/21 07:55:13;;;;;;;7.70;1.98;;;;;;;14.99;62.45;100643.25;4977064;28;20073;-45
2022/05/21 07:57:41;;;;;;;11.77;2.28;;;;;;;15.07;61.66;100637.94;4980823;28;20046;-44
2022/05/21 08:00:10;;;;;;;8.65;2.53;;;;;;;15.11;61.90;100644.84;4980495;28;20050;-43
2022/05/21 08:02:41;;;;;;;10.45;1.98;;;;;;;15.12;60.91;100643.97;4990645;28;20046;-44
2022/05/21 08:05:08;;;;;;;16.60;3.25;;;;;;;15.12;61.61;100637.88;4984557;28;20137;-44
2022/05/21 08:07:34;;;;;;;9.93;2.85;;;;;;;15.11;61.34;100647.47;4988172;28;20050;-49
2022/05/21 08:10:03;;;;;;;11.55;3.22;;;;;;;15.12;61.45;100643.09;4987353;28;20045;-42
2022/05/21 08:12:30;;;;;;;8.98;1.75;;;;;;;15.12;61.24;100646.56;4987816;28;20540;-43
2022/05/21 08:14:57;;;;;;;14.63;3.08;;;;;;;15.24;61.54;100652.53;4987819;28;20053;-46
2022/05/21 08:17:23;;;;;;;9.45;2.30;;;;;;;15.35;61.49;100661.09;4984266;28;20046;-44
2022/05/21 08:19:50;;;;;;;7.07;1.33;;;;;;;15.47;61.83;100664.41;4987286;28;20050;-42
2022/05/21 08:27:50;;;;;;;11.15;1.73;;;;;;;15.75;60.79;100651.84;4984393;28;20050;-47
2022/05/21 08:30:17;;;;;;;7.65;1.75;;;;;;;15.73;60.34;100660.56;4965465;28;21282;-48
2022/05/21 08:32:44;;;;;;;11.55;2.13;;;;;;;15.65;60.25;100664.19;4988209;28;20050;-43
2022/05/21 08:35:11;;;;;;;10.52;2.13;;;;;;;15.62;60.32;100653.75;4988165;28;20050;-43
2022/05/21 08:37:38;;;;;;;9.73;1.60;;;;;;;15.63;60.48;100655.47;4989529;28;20055;-44
2022/05/21 08:40:05;;;;;;;9.85;2.28;;;;;;;15.67;60.17;100651.94;4981769;28;20542;-47
2022/05/21 08:42:40;;;;;;;9.43;1.67;;;;;;;15.67;60.17;100651.94;4980258;28;20052;-45
2022/05/21 08:45:31;;;;;;;12.20;2.03;;;;;;;15.72;60.27;100653.63;4982926;28;20046;-48
2022/05/21 08:48:02;;;;;;;10.20;1.67;;;;;;;15.84;59.96;100648.22;4988160;28;20038;-46
2022/05/21 08:50:33;;;;;;;7.32;3.17;;;;;;;15.98;60.49;100655.03;4987011;28;20600;-48
2022/05/21 08:53:15;;;;;;;10.95;2.47;;;;;;;16.10;59.41;100654.81;4993891;28;20102;-45
2022/05/21 08:55:47;;;;;;;11.52;2.47;;;;;;;16.25;59.46;100650.25;4986672;28;21567;-47
2022/05/21 09:00:55;;;;;;;8.27;1.67;;;;;;;16.43;58.90;100649.06;5033334;27;20394;-48
2022/05/21 09:03:24;;;;;;;11.23;1.83;;;;;;;16.53;58.48;100640.16;5014343;28;20064;-50
2022/05/21 09:06:07;;;;;;;6.60;1.85;;;;;;;16.67;58.53;100655.59;5010965;28;20057;-51
2022/05/21 09:11:40;;;;;;;14.63;3.50;;;;;;;17.06;58.25;100646.19;5066206;27;20404;-48
2022/05/21 09:17:00;;;;;;;4.68;1.15;;;;;;;17.43;57.43;100658.47;5054918;27;20364;-43
2022/05/21 09:19:34;;;;;;;6.90;1.40;;;;;;;17.38;56.00;100657.72;5042805;28;20053;-48
2022/05/21 09:22:04;;;;;;;6.47;1.38;;;;;;;17.36;56.19;100641.19;5023151;28;20041;-45
2022/05/21 09:32:56;;;;;;;8.35;1.35;;;;;;;17.33;56.41;100639.50;5019068;27;20421;-43
2022/05/21 09:35:47;;;;;;;5.70;1.05;;;;;;;17.37;56.61;100642.94;5011200;28;20053;-49
2022/05/21 09:38:19;;;;;;;6.63;1.50;;;;;;;17.50;56.60;100647.88;5015213;28;20045;-48
2022/05/21 09:40:45;;;;;;;7.72;1.13;;;;;;;17.63;56.74;100640.63;5014641;28;20490;-43
2022/05/21 09:45:51;;;;;;;7.15;1.15;;;;;;;17.96;56.37;100648.56;5034398;28;20404;-45
2022/05/21 09:48:21;;;;;;;7.50;1.63;;;;;;;18.25;56.58;100641.78;4988124;28;20487;-44
2022/05/21 09:50:56;;;;;;;9.50;1.83;;;;;;;18.59;55.87;100653.16;4987159;28;20058;-42
2022/05/21 09:58:41;;;;;;;8.70;2.05;;;;;;;19.45;54.31;100659.53;5035880;27;20417;-50
2022/05/21 10:01:13;;;;;;;10.13;1.48;;;;;;;19.67;52.46;100645.75;5023435;28;20046;-47
2022/05/21 10:03:49;;;;;;;7.75;1.50;;;;;;;19.86;53.13;100653.91;5021506;28;20046;-44
2022/05/21 10:06:30;;;;;;;5.35;1.88;;;;;;;20.04;50.70;100652.47;5022019;28;20513;-45
2022/05/21 10:12:04;;;;;;;6.03;1.63;;;;;;;20.12;51.81;100669.75;5021879;28;20041;-48
2022/05/21 10:17:18;;;;;;;8.30;2.00;;;;;;;20.14;50.01;100667.97;5010432;28;20768;-48
2022/05/21 10:20:23;;;;;;;6.60;1.98;;;;;;;20.12;49.83;100664.50;5004146;28;20061;-46
2022/05/21 10:23:00;;;;;;;10.55;2.67;;;;;;;20.11;49.22;100647.88;5002949;28;20130;-46
2022/05/21 10:25:37;;;;;;;6.70;2.40;;;;;;;20.04;49.54;100649.84;5004438;28;20104;-46
2022/05/21 10:28:43;;;;;;;7.78;2.72;;;;;;;20.00;49.30;100626.34;5003081;28;20525;-46
2022/05/21 10:37:18;;;;;;;5.38;1.15;;;;;;;19.88;48.77;100649.47;5045561;27;20413;-44
2022/05/21 10:42:50;;;;;;;6.55;2.30;;;;;;;19.70;49.34;100655.28;5052305;27;20394;-46
2022/05/21 10:56:38;;;;;;;4.95;0.98;;;;;;;20.32;48.77;100655.09;5008383;28;20895;-47
2022/05/21 10:59:33;;;;;;;9.85;1.38;;;;;;;20.67;47.63;100653.03;4994134;28;20054;-43
2022/05/21 11:02:35;;;;;;;4.60;1.30;;;;;;;20.74;48.05;100643.97;4995334;28;20046;-45
2022/05/21 11:07:46;;;;;;;6.57;1.95;;;;;;;21.05;46.95;100634.97;5016265;27;20412;-48
2022/05/21 11:18:45;;;;;;;6.18;3.15;;;;;;;21.44;46.27;100623.00;5037637;28;20934;-49
2022/05/21 11:21:26;;;;;;;5.80;2.80;;;;;;;21.66;46.31;100630.06;5000769;28;20061;-44
2022/05/21 11:26:45;;;;;;;6.78;1.60;;;;;;;22.02;45.66;100630.41;5041259;28;20404;-47
2022/05/21 11:37:39;;;;;;;4.43;1.08;;;;;;;22.49;43.77;100629.28;5014567;28;20440;-44
2022/05/21 11:40:08;;;;;;;4.93;1.00;;;;;;;22.54;43.68;100626.47;4996533;28;20061;-44
2022/05/21 11:42:36;;;;;;;;;;;;;;;22.51;42.98;100618.69;4997775;28;20937;-53
2022/05/21 11:45:24;;;;;;;5.18;1.33;;;;;;;22.67;42.71;100622.41;4993359;28;19929;-49
2022/05/21 11:48:12;;;;;;;4.63;1.52;;;;;;;22.79;43.65;100615.69;4990477;28;20046;-48
2022/05/21 11:50:40;;;;;;;3.97;0.80;;;;;;;23.02;44.00;100613.78;4977357;28;20054;-47
2022/05/21 11:53:28;;;;;;;3.92;1.00;;;;;;;23.10;42.82;100605.53;4989523;28;20053;-49
2022/05/21 12:03:53;;;;;;;4.72;0.95;;;;;;;23.23;42.23;100605.78;5035470;28;20393;-49
2022/05/21 12:06:30;;;;;;;4.78;1.10;;;;;;;23.26;41.22;100613.56;5009183;28;20103;-47
2022/05/21 12:09:34;;;;;;;5.63;0.98;;;;;;;23.24;41.20;100602.22;5011229;28;20053;-49
2022/05/21 12:12:42;;;;;;;7.18;1.13;;;;;;;23.21;40.91;100594.44;5012895;28;20072;-47
2022/05/21 18:00:48;;;;;;;4.82;2.13;;;;;;;20.47;41.14;100449.34;5029796;28;20786;-41
2022/05/21 18:03:18;;;;;;;4.68;0.95;;;;;;;20.34;41.72;100443.72;5000671;28;20053;-42
2022/05/21 18:05:48;;;;;;;3.80;1.05;;;;;;;20.22;41.89;100449.41;5023191;28;20053;-45
2022/05/21 18:08:15;;;;;;;3.63;0.80;;;;;;;20.12;42.59;100444.50;5012882;28;20054;-43
2022/05/21 18:10:44;;;;;;;2.92;0.70;;;;;;;20.09;42.55;100449.03;5021241;28;20054;-44
2022/05/21 18:13:11;;;;;;;6.25;1.38;;;;;;;20.04;42.44;100444.75;5024430;28;20042;-46
2022/05/21 18:21:14;;;;;;;7.00;1.05;;;;;;;19.90;42.51;100447.03;5023070;28;20042;-46
2022/05/21 18:23:49;;;;;;;6.07;0.73;;;;;;;19.82;42.22;100446.44;5024239;28;20088;-42
2022/05/21 18:26:34;;;;;;;4.40;0.63;;;;;;;19.74;42.55;100450.19;5021593;28;20056;-47
2022/05/21 18:29:01;;;;;;;7.82;1.10;;;;;;;19.68;42.64;100445.13;5019957;28;20045;-44
2022/05/21 18:31:30;;;;;;;4.15;0.90;;;;;;;19.64;42.49;100447.03;5021386;28;20045;-47
2022/05/21 18:33:59;;;;;;;4.13;0.70;;;;;;;19.57;42.50;100442.00;5017767;28;20128;-44
2022/05/21 18:36:29;;;;;;;5.30;0.80;;;;;;;19.49;42.76;100437.88;5013952;28;20057;-43
2022/05/21 18:38:57;;;;;;;7.35;1.27;;;;;;;19.41;43.33;100442.53;5014970;28;20049;-43
2022/05/21 18:41:25;;;;;;;5.00;0.88;;;;;;;19.35;43.39;100442.75;5019750;28;20072;-42
2022/05/21 18:43:55;;;;;;;5.03;1.40;;;;;;;19.31;44.26;100443.72;5021402;28;20049;-41
2022/05/21 18:46:27;;;;;;;5.28;1.13;;;;;;;19.31;43.93;100441.09;5019704;28;20045;-44
2022/05/21 18:48:56;;;;;;;2.97;0.70;;;;;;;19.30;44.14;100436.78;5003288;28;20045;-44
2022/05/21 18:51:24;;;;;;;3.28;0.77;;;;;;;19.29;44.55;100437.69;5017034;28;20050;-40
2022/05/21 18:53:51;;;;;;;5.05;1.08;;;;;;;19.23;44.87;100439.63;5019809;28;20053;-42
2022/05/21 18:56:20;;;;;;;6.20;1.65;;;;;;;19.18;44.64;100430.19;5020102;28;20056;-41
2022/05/21 18:58:51;;;;;;;4.45;1.52;;;;;;;19.07;44.13;100434.00;5020429;28;20503;-43
2022/05/21 19:01:21;;;;;;;5.07;0.73;;;;;;;18.97;44.80;100438.66;5019861;28;20054;-43
2022/05/21 19:03:48;;;;;;;4.43;1.75;;;;;;;18.87;44.96;100437.22;5018901;28;20472;-48
2022/05/21 19:06:16;;;;;;;3.20;1.23;;;;;;;18.72;44.84;100439.44;5021659;28;20125;-46
2022/05/21 19:08:44;;;;;;;4.55;0.82;;;;;;;18.59;45.39;100438.06;5019880;28;20125;-42
2022/05/21 19:11:12;;;;;;;6.55;1.23;;;;;;;18.45;45.30;100441.97;5013166;28;20042;-41
2022/05/21 19:13:43;;;;;;;3.35;0.80;;;;;;;18.32;45.15;100440.59;5007684;28;20064;-43
2022/05/21 19:16:30;;;;;;;3.72;1.00;;;;;;;18.20;46.25;100444.41;5005869;28;20068;-43
2022/05/21 19:19:19;;;;;;;7.00;1.30;;;;;;;18.08;45.50;100442.97;5004375;28;20485;-45
2022/05/21 19:21:50;;;;;;;6.50;0.90;;;;;;;17.95;45.63;100438.09;5007369;28;20056;-41
2022/05/21 19:24:21;;;;;;;3.80;0.63;;;;;;;17.84;46.24;100429.66;5007860;28;20044;-48
2022/05/21 19:26:52;;;;;;;7.63;1.02;;;;;;;17.72;46.18;100431.72;5005256;28;20511;-41
2022/05/21 19:29:24;;;;;;;7.47;0.95;;;;;;;17.64;46.23;100423.19;5002217;28;20038;-39
2022/05/21 19:31:51;;;;;;;10.95;1.20;;;;;;;17.52;46.74;100418.25;5008282;28;20526;-42
2022/05/21 19:34:20;;;;;;;6.78;1.13;;;;;;;17.43;46.60;100425.44;5005110;28;20485;-43
2022/05/21 19:36:47;;;;;;;5.38;1.05;;;;;;;17.32;46.63;100432.72;5003735;28;20045;-46